MZBZ - Philip S.W. Goldson Intl.
MZBZ 050000Z 10006KT 9999 SCT023 27/24 A2983 Q1010 NOSIG
Observed:
Wind:
visibility:
Flight Rules:
Cloud Levels:
Temperature:
Humidity:
Pressure: